PWSweather.com
Personal Weather Stations
Station Observations
KCTHAMDEN
Dunbar Hill, Hamden, CT 06514

Dunbar HillHamden, CT 06514

Lat: 41.365437, Lon: -72.956532

Elevation: 200

Station Type: Davis Vantage Pro2+

www.hamdenweather.com

High Low Average
Temperature 78.1°F25.6°C 60.0°F15.6°C 68.9°F20.5°C
Dew Point 63.5°F17.5°C 52.2°F11.2°C 58.3°F14.6°C
Winds 5.8 mph 9.3 kmh Calm Calm 1.0 mph S1.6 kmh S
Wind Gusts 12.0 mph19.3 kmh -- 3.0 mph4.8 kmh
Humidity 89% 42% 71%
Pressure 30.11 in1019.6 mb 29.78 in1008.5 mb -
Precipitation 0.01 in0.3 mm - -
Hour Temp Dew Point Humidity Winds Wind Gusts Pressure Precip Precip Rate Daily Precip Total
12:00 AM 69.1°F20.6°C 65.1°F18.4°C 87% 1.6 mph N2.6 kmh N 8.0 mph12.9 kmh 29.77 in1008.1 mb - 0.00 in0.0 mm 0.00 in0.0 mm
12:15 AM 69.5°F20.8°C 63.8°F17.7°C 82% 2.4 mph WSW3.9 kmh WSW 4.0 mph6.4 kmh 29.77 in1008.1 mb - 0.00 in0.0 mm 0.00 in0.0 mm
12:30 AM 70.0°F21.1°C 63.9°F17.7°C 81% 1.8 mph W2.9 kmh W 3.0 mph4.8 kmh 29.77 in1008.1 mb - 0.00 in0.0 mm 0.00 in0.0 mm
12:45 AM 70.4°F21.3°C 63.9°F17.7°C 80% 0.2 mph ENE0.3 kmh ENE 4.0 mph6.4 kmh 29.78 in1008.5 mb - 0.00 in0.0 mm 0.00 in0.0 mm
01:00 AM 70.3°F21.3°C 63.1°F17.3°C 78% 1.3 mph WSW2.1 kmh WSW 2.0 mph3.2 kmh 29.78 in1008.5 mb - 0.00 in0.0 mm 0.00 in0.0 mm
01:15 AM 70.1°F21.2°C 62.9°F17.2°C 78% 1.1 mph WSW1.8 kmh WSW 3.0 mph4.8 kmh 29.78 in1008.5 mb - 0.00 in0.0 mm 0.00 in0.0 mm
01:30 AM 69.8°F21.0°C 63.3°F17.4°C 80% 0.3 mph NE0.5 kmh NE 1.0 mph1.6 kmh 29.78 in1008.5 mb - 0.00 in0.0 mm 0.00 in0.0 mm
01:45 AM 69.6°F20.9°C 63.5°F17.5°C 81% 0.4 mph N0.6 kmh N 3.0 mph4.8 kmh 29.78 in1008.5 mb - 0.00 in0.0 mm 0.00 in0.0 mm
02:00 AM 69.1°F20.6°C 63.4°F17.4°C 82% 0.3 mph N0.5 kmh N 1.0 mph1.6 kmh 29.78 in1008.5 mb - 0.00 in0.0 mm 0.00 in0.0 mm
02:15 AM 68.6°F20.3°C 62.9°F17.2°C 82% Calm Calm -- 29.79 in1008.8 mb - 0.00 in0.0 mm 0.00 in0.0 mm
02:30 AM 68.2°F20.1°C 62.8°F17.1°C 83% Calm Calm -- 29.79 in1008.8 mb - 0.00 in0.0 mm 0.00 in0.0 mm
02:45 AM 67.8°F19.9°C 62.8°F17.1°C 84% 0.6 mph N1.0 kmh N 1.0 mph1.6 kmh 29.79 in1008.8 mb - 0.00 in0.0 mm 0.00 in0.0 mm
03:00 AM 67.6°F19.8°C 62.6°F17.0°C 84% 3.5 mph WSW5.6 kmh WSW 6.0 mph9.7 kmh 29.79 in1008.8 mb - 0.00 in0.0 mm 0.00 in0.0 mm
03:15 AM 67.6°F19.8°C 62.9°F17.2°C 85% 1.4 mph NNE2.3 kmh NNE 9.0 mph14.5 kmh 29.80 in1009.1 mb - 0.00 in0.0 mm 0.00 in0.0 mm
03:30 AM 67.7°F19.8°C 62.0°F16.7°C 82% 1.6 mph N2.6 kmh N 8.0 mph12.9 kmh 29.80 in1009.1 mb - 0.00 in0.0 mm 0.00 in0.0 mm
03:45 AM 68.0°F20.0°C 61.6°F16.4°C 80% 3.2 mph N5.1 kmh N 7.0 mph11.3 kmh 29.81 in1009.5 mb - 0.00 in0.0 mm 0.00 in0.0 mm
04:00 AM 68.1°F20.1°C 61.0°F16.1°C 78% 2.5 mph NE4.0 kmh NE 2.0 mph3.2 kmh 29.81 in1009.5 mb - 0.00 in0.0 mm 0.00 in0.0 mm
04:15 AM 68.0°F20.0°C 61.2°F16.2°C 79% 1.1 mph ENE1.8 kmh ENE 2.0 mph3.2 kmh 29.82 in1009.8 mb - 0.00 in0.0 mm 0.00 in0.0 mm
04:30 AM 67.9°F19.9°C 60.4°F15.8°C 77% 1.3 mph NNE2.1 kmh NNE 4.0 mph6.4 kmh 29.83 in1010.2 mb - 0.00 in0.0 mm 0.00 in0.0 mm
04:45 AM 67.8°F19.9°C 60.3°F15.7°C 77% 2.4 mph NNE3.9 kmh NNE 7.0 mph11.3 kmh 29.82 in1009.8 mb - 0.00 in0.0 mm 0.00 in0.0 mm
05:00 AM 67.7°F19.8°C 60.6°F15.9°C 78% 0.2 mph WSW0.3 kmh WSW 2.0 mph3.2 kmh 29.83 in1010.2 mb - 0.00 in0.0 mm 0.00 in0.0 mm
05:15 AM 67.4°F19.7°C 59.9°F15.5°C 77% 2.1 mph W3.4 kmh W 8.0 mph12.9 kmh 29.84 in1010.5 mb - 0.00 in0.0 mm 0.00 in0.0 mm
05:30 AM 66.8°F19.3°C 59.7°F15.4°C 78% 0.6 mph NE1.0 kmh NE 1.0 mph1.6 kmh 29.84 in1010.5 mb - 0.00 in0.0 mm 0.00 in0.0 mm
05:45 AM 66.4°F19.1°C 59.7°F15.4°C 79% 0.1 mph N0.2 kmh N 1.0 mph1.6 kmh 29.85 in1010.8 mb - 0.00 in0.0 mm 0.00 in0.0 mm
06:00 AM 66.2°F19.0°C 60.2°F15.7°C 81% Calm Calm -- 29.85 in1010.8 mb - 0.00 in0.0 mm 0.00 in0.0 mm
06:15 AM 65.9°F18.8°C 59.9°F15.5°C 81% 0.6 mph WSW1.0 kmh WSW 1.0 mph1.6 kmh 29.86 in1011.2 mb - 0.00 in0.0 mm 0.00 in0.0 mm
06:30 AM 65.7°F18.7°C 59.4°F15.2°C 80% Calm Calm -- 29.87 in1011.5 mb - 0.00 in0.0 mm 0.00 in0.0 mm
06:45 AM 65.6°F18.7°C 58.9°F14.9°C 79% 0.2 mph NNE0.3 kmh NNE 2.0 mph3.2 kmh 29.88 in1011.9 mb - 0.00 in0.0 mm 0.00 in0.0 mm
07:00 AM 65.6°F18.7°C 58.9°F14.9°C 79% 3.7 mph NNE6.0 kmh NNE 9.0 mph14.5 kmh 29.88 in1011.9 mb - 0.00 in0.0 mm 0.00 in0.0 mm
07:15 AM 65.5°F18.6°C 58.4°F14.7°C 78% 2.4 mph WSW3.9 kmh WSW 4.0 mph6.4 kmh 29.89 in1012.2 mb - 0.00 in0.0 mm 0.00 in0.0 mm
07:30 AM 65.3°F18.5°C 58.3°F14.6°C 78% Calm Calm -- 29.89 in1012.2 mb - 0.00 in0.0 mm 0.00 in0.0 mm
07:45 AM 65.2°F18.4°C 58.8°F14.9°C 80% 1.2 mph SW1.9 kmh SW 2.0 mph3.2 kmh 29.90 in1012.5 mb - 0.00 in0.0 mm 0.00 in0.0 mm
08:00 AM 64.6°F18.1°C 59.0°F15.0°C 82% 0.6 mph WSW1.0 kmh WSW -- 29.91 in1012.9 mb - 0.00 in0.0 mm 0.00 in0.0 mm
08:15 AM 64.2°F17.9°C 59.3°F15.2°C 84% 1.1 mph WSW1.8 kmh WSW 2.0 mph3.2 kmh 29.91 in1012.9 mb - 0.01 in0.3 mm 0.01 in0.3 mm
08:30 AM 64.3°F17.9°C 60.0°F15.6°C 86% Calm Calm -- 29.92 in1013.2 mb - 0.00 in0.0 mm 0.01 in0.3 mm
08:45 AM 64.8°F18.2°C 60.2°F15.7°C 85% 0.1 mph WSW0.2 kmh WSW 2.0 mph3.2 kmh 29.92 in1013.2 mb - 0.00 in0.0 mm 0.01 in0.3 mm
09:00 AM 65.4°F18.6°C 60.4°F15.8°C 84% 2.0 mph SW3.2 kmh SW 4.0 mph6.4 kmh 29.93 in1013.5 mb - 0.00 in0.0 mm 0.01 in0.3 mm
09:15 AM 65.7°F18.7°C 59.4°F15.2°C 80% 2.3 mph N3.7 kmh N 5.0 mph8.0 kmh 29.94 in1013.9 mb - 0.00 in0.0 mm 0.01 in0.3 mm
09:30 AM 66.4°F19.1°C 60.4°F15.8°C 81% 3.3 mph ENE5.3 kmh ENE 5.0 mph8.0 kmh 29.95 in1014.2 mb - 0.00 in0.0 mm 0.01 in0.3 mm
09:45 AM 67.9°F19.9°C 59.3°F15.2°C 74% 3.2 mph WSW5.1 kmh WSW 4.0 mph6.4 kmh 29.95 in1014.2 mb - 0.00 in0.0 mm 0.01 in0.3 mm
10:00 AM 68.8°F20.4°C 58.6°F14.8°C 70% 3.1 mph NE5.0 kmh NE 6.0 mph9.7 kmh 29.95 in1014.2 mb - 0.00 in0.0 mm 0.01 in0.3 mm
10:15 AM 69.1°F20.6°C 58.5°F14.7°C 69% 3.8 mph NW6.1 kmh NW 10.0 mph16.1 kmh 29.96 in1014.6 mb - 0.00 in0.0 mm 0.01 in0.3 mm
10:30 AM 69.9°F21.1°C 58.9°F14.9°C 68% 3.9 mph NE6.3 kmh NE 5.0 mph8.0 kmh 29.96 in1014.6 mb - 0.00 in0.0 mm 0.01 in0.3 mm
10:45 AM 70.2°F21.2°C 58.8°F14.9°C 67% 2.2 mph WNW3.5 kmh WNW 3.0 mph4.8 kmh 29.96 in1014.6 mb - 0.00 in0.0 mm 0.01 in0.3 mm
11:00 AM 71.7°F22.1°C 61.4°F16.3°C 70% 2.8 mph NE4.5 kmh NE 6.0 mph9.7 kmh 29.96 in1014.6 mb - 0.00 in0.0 mm 0.01 in0.3 mm
11:15 AM 72.6°F22.6°C 58.8°F14.9°C 62% 2.5 mph W4.0 kmh W 3.0 mph4.8 kmh 29.96 in1014.6 mb - 0.00 in0.0 mm 0.01 in0.3 mm
11:30 AM 73.1°F22.8°C 60.6°F15.9°C 65% 2.8 mph NE4.5 kmh NE 6.0 mph9.7 kmh 29.96 in1014.6 mb - 0.00 in0.0 mm 0.01 in0.3 mm
11:45 AM 73.4°F23.0°C 58.2°F14.6°C 59% 4.3 mph WSW6.9 kmh WSW 4.0 mph6.4 kmh 29.96 in1014.6 mb - 0.00 in0.0 mm 0.01 in0.3 mm
12:00 PM 74.4°F23.6°C 58.6°F14.8°C 58% 3.9 mph NW6.3 kmh NW 6.0 mph9.7 kmh 29.97 in1014.9 mb - 0.00 in0.0 mm 0.01 in0.3 mm
12:15 PM 74.6°F23.7°C 56.4°F13.6°C 53% 2.2 mph SW3.5 kmh SW 4.0 mph6.4 kmh 29.97 in1014.9 mb - 0.00 in0.0 mm 0.01 in0.3 mm
12:30 PM 75.3°F24.1°C 56.5°F13.6°C 52% 3.2 mph SW5.1 kmh SW 5.0 mph8.0 kmh 29.97 in1014.9 mb - 0.00 in0.0 mm 0.01 in0.3 mm
12:45 PM 75.8°F24.3°C 55.8°F13.2°C 50% 2.9 mph N4.7 kmh N 7.0 mph11.3 kmh 29.96 in1014.6 mb - 0.00 in0.0 mm 0.01 in0.3 mm
01:00 PM 75.9°F24.4°C 56.5°F13.6°C 51% 1.2 mph NE1.9 kmh NE 5.0 mph8.0 kmh 29.96 in1014.6 mb - 0.00 in0.0 mm 0.01 in0.3 mm
01:15 PM 76.4°F24.7°C 52.2°F11.2°C 43% 3.3 mph NW5.3 kmh NW 5.0 mph8.0 kmh 29.96 in1014.6 mb - 0.00 in0.0 mm 0.01 in0.3 mm
01:30 PM 77.0°F25.0°C 54.7°F12.6°C 46% 5.8 mph NE9.3 kmh NE 12.0 mph19.3 kmh 29.96 in1014.6 mb - 0.00 in0.0 mm 0.01 in0.3 mm
01:45 PM 77.1°F25.1°C 55.9°F13.3°C 48% 3.9 mph SSW6.3 kmh SSW 11.0 mph17.7 kmh 29.96 in1014.6 mb - 0.00 in0.0 mm 0.01 in0.3 mm
02:00 PM 76.9°F24.9°C 53.4°F11.9°C 44% 4.9 mph NW7.9 kmh NW 4.0 mph6.4 kmh 29.96 in1014.6 mb - 0.00 in0.0 mm 0.01 in0.3 mm
02:15 PM 77.0°F25.0°C 53.4°F11.9°C 44% 5.2 mph SW8.4 kmh SW 5.0 mph8.0 kmh 29.97 in1014.9 mb - 0.00 in0.0 mm 0.01 in0.3 mm
02:30 PM 77.1°F25.1°C 52.2°F11.2°C 42% 3.7 mph SW6.0 kmh SW 7.0 mph11.3 kmh 29.96 in1014.6 mb - 0.00 in0.0 mm 0.01 in0.3 mm
02:45 PM 77.0°F25.0°C 53.4°F11.9°C 44% 3.2 mph S5.1 kmh S 7.0 mph11.3 kmh 29.96 in1014.6 mb - 0.00 in0.0 mm 0.01 in0.3 mm
03:00 PM 77.6°F25.3°C 55.8°F13.2°C 47% 3.0 mph N4.8 kmh N 6.0 mph9.7 kmh 29.96 in1014.6 mb - 0.00 in0.0 mm 0.01 in0.3 mm
03:15 PM 77.5°F25.3°C 56.8°F13.8°C 49% 2.8 mph S4.5 kmh S 10.0 mph16.1 kmh 29.96 in1014.6 mb - 0.00 in0.0 mm 0.01 in0.3 mm
03:30 PM 77.4°F25.2°C 55.0°F12.8°C 46% 3.0 mph SE4.8 kmh SE 3.0 mph4.8 kmh 29.96 in1014.6 mb - 0.00 in0.0 mm 0.01 in0.3 mm
03:45 PM 77.6°F25.3°C 55.1°F12.8°C 46% 1.9 mph WSW3.1 kmh WSW 5.0 mph8.0 kmh 29.96 in1014.6 mb - 0.00 in0.0 mm 0.01 in0.3 mm
04:00 PM 78.1°F25.6°C 55.7°F13.2°C 46% 3.2 mph ENE5.1 kmh ENE 4.0 mph6.4 kmh 29.95 in1014.2 mb - 0.00 in0.0 mm 0.01 in0.3 mm
04:15 PM 78.0°F25.6°C 55.5°F13.1°C 46% 1.0 mph S1.6 kmh S 8.0 mph12.9 kmh 29.96 in1014.6 mb - 0.00 in0.0 mm 0.01 in0.3 mm
04:30 PM 77.1°F25.1°C 53.5°F11.9°C 44% 1.7 mph NNE2.7 kmh NNE 3.0 mph4.8 kmh 29.96 in1014.6 mb - 0.00 in0.0 mm 0.01 in0.3 mm
04:45 PM 76.6°F24.8°C 56.0°F13.3°C 49% 3.0 mph NNE4.8 kmh NNE 7.0 mph11.3 kmh 29.96 in1014.6 mb - 0.00 in0.0 mm 0.01 in0.3 mm
05:00 PM 76.6°F24.8°C 55.4°F13.0°C 48% 1.2 mph SW1.9 kmh SW 1.0 mph1.6 kmh 29.96 in1014.6 mb - 0.00 in0.0 mm 0.01 in0.3 mm
05:15 PM 77.3°F25.2°C 56.6°F13.7°C 49% 1.2 mph SW1.9 kmh SW 2.0 mph3.2 kmh 29.96 in1014.6 mb - 0.00 in0.0 mm 0.01 in0.3 mm
05:30 PM 76.8°F24.9°C 57.3°F14.1°C 51% Calm Calm -- 29.97 in1014.9 mb - 0.00 in0.0 mm 0.01 in0.3 mm
05:45 PM 75.7°F24.3°C 55.7°F13.2°C 50% 0.1 mph NE0.2 kmh NE 6.0 mph9.7 kmh 29.97 in1014.9 mb - 0.00 in0.0 mm 0.01 in0.3 mm
06:00 PM 74.3°F23.5°C 57.5°F14.2°C 56% 1.0 mph S1.6 kmh S 2.0 mph3.2 kmh 29.97 in1014.9 mb - 0.00 in0.0 mm 0.01 in0.3 mm
06:15 PM 72.5°F22.5°C 56.8°F13.8°C 58% 1.1 mph S1.8 kmh S 4.0 mph6.4 kmh 29.97 in1014.9 mb - 0.00 in0.0 mm 0.01 in0.3 mm
06:30 PM 70.9°F21.6°C 56.7°F13.7°C 61% 0.3 mph S0.5 kmh S -- 29.98 in1015.2 mb - 0.00 in0.0 mm 0.01 in0.3 mm
06:45 PM 69.5°F20.8°C 56.8°F13.8°C 64% 0.4 mph S0.6 kmh S 1.0 mph1.6 kmh 29.98 in1015.2 mb - 0.00 in0.0 mm 0.01 in0.3 mm
07:00 PM 68.6°F20.3°C 58.4°F14.7°C 70% 0.3 mph S0.5 kmh S 1.0 mph1.6 kmh 29.99 in1015.6 mb - 0.00 in0.0 mm 0.01 in0.3 mm
07:15 PM 67.8°F19.9°C 58.1°F14.5°C 71% Calm Calm -- 30.00 in1015.9 mb - 0.00 in0.0 mm 0.01 in0.3 mm
07:30 PM 67.0°F19.4°C 58.1°F14.5°C 73% Calm Calm -- 30.00 in1015.9 mb - 0.00 in0.0 mm 0.01 in0.3 mm
07:45 PM 66.2°F19.0°C 58.5°F14.7°C 76% Calm Calm -- 30.01 in1016.3 mb - 0.00 in0.0 mm 0.01 in0.3 mm
08:00 PM 65.5°F18.6°C 58.8°F14.9°C 79% Calm Calm -- 30.02 in1016.6 mb - 0.00 in0.0 mm 0.01 in0.3 mm
08:15 PM 64.9°F18.3°C 58.6°F14.8°C 80% Calm Calm -- 30.02 in1016.6 mb - 0.00 in0.0 mm 0.01 in0.3 mm
08:30 PM 64.2°F17.9°C 58.2°F14.6°C 81% Calm Calm -- 30.03 in1016.9 mb - 0.00 in0.0 mm 0.01 in0.3 mm
08:45 PM 63.8°F17.7°C 58.2°F14.6°C 82% Calm Calm -- 30.04 in1017.3 mb - 0.00 in0.0 mm 0.01 in0.3 mm
09:00 PM 63.4°F17.4°C 58.1°F14.5°C 83% Calm Calm -- 30.05 in1017.6 mb - 0.00 in0.0 mm 0.01 in0.3 mm
09:15 PM 63.1°F17.3°C 57.9°F14.4°C 83% Calm Calm -- 30.05 in1017.6 mb - 0.00 in0.0 mm 0.01 in0.3 mm
09:30 PM 62.5°F16.9°C 57.3°F14.1°C 83% Calm Calm -- 30.06 in1017.9 mb - 0.00 in0.0 mm 0.01 in0.3 mm
09:45 PM 62.0°F16.7°C 57.1°F13.9°C 84% Calm Calm -- 30.06 in1017.9 mb - 0.00 in0.0 mm 0.01 in0.3 mm
10:00 PM 61.5°F16.4°C 56.9°F13.8°C 85% Calm Calm -- 30.07 in1018.3 mb - 0.00 in0.0 mm 0.01 in0.3 mm
10:15 PM 61.1°F16.2°C 56.9°F13.8°C 86% Calm Calm -- 30.07 in1018.3 mb - 0.00 in0.0 mm 0.01 in0.3 mm
10:30 PM 60.8°F16.0°C 57.2°F14.0°C 88% Calm Calm -- 30.08 in1018.6 mb - 0.00 in0.0 mm 0.01 in0.3 mm
10:45 PM 60.6°F15.9°C 57.0°F13.9°C 88% Calm Calm -- 30.08 in1018.6 mb - 0.00 in0.0 mm 0.01 in0.3 mm
11:00 PM 60.6°F15.9°C 57.0°F13.9°C 88% Calm Calm -- 30.08 in1018.6 mb - 0.00 in0.0 mm 0.01 in0.3 mm
11:15 PM 60.7°F15.9°C 57.1°F13.9°C 88% Calm Calm -- 30.09 in1019.0 mb - 0.00 in0.0 mm 0.01 in0.3 mm
11:30 PM 60.7°F15.9°C 57.4°F14.1°C 89% 0.2 mph SW0.3 kmh SW 1.0 mph1.6 kmh 30.09 in1019.0 mb - 0.00 in0.0 mm 0.01 in0.3 mm
11:45 PM 60.7°F15.9°C 57.4°F14.1°C 89% Calm Calm -- 30.09 in1019.0 mb - 0.00 in0.0 mm 0.01 in0.3 mm